Gallatin, TN

10:57 PM CST on January 22, 2017 (GMT -0600)
Foxfire 2 Subdivision | | Change Station
Active Advisory: Wind Advisory

Elev 479 ft 36.37 °N, 86.46 °W | Updated 4 seconds ago

Overcast
Overcast
57.2 °F
Feels Like 57.2 °F
N
6.3
Wind Variable Wind from NNW
Gusts 10.5 mph

Today
High -- | Low -- °F
--% Chance of Precip.
Yesterday
High -- | Low -- °F
Precip. -- in
Pressure 29.29 in
Visibility 6.0 miles
Clouds Overcast 1200 ft
Dew Point 53 °F
Humidity 86%
Rainfall 0.04 in
Snow Depth Not available.
6:53 AM 5:01 PM
Waning Crescent, 21% visible
METAR KBNA 230453Z 36012KT 6SM -RA BR OVC012 13/12 A2930 RMK AO2 RAB08 SLP918 P0001 T01330117
Pressure 29.29 in
Visibility 6.0 miles
Clouds Overcast 1200 ft
Dew Point 53 °F
Humidity 86%
Rainfall 0.04 in
Snow Depth Not available.
6:53 AM 5:01 PM
Waning Crescent, 21% visible
METAR KBNA 230453Z 36012KT 6SM -RA BR OVC012 13/12 A2930 RMK AO2 RAB08 SLP918 P0001 T01330117

Get Your Daily Forecast Email!

Thanks for signing up!

Be on the lookout for a verification email in your inbox.

You'll start receiving the daily forecast at 8 AM.

×

10-Day Weather Forecast

Almanac

Astronomy

Jan. 22, 2017 Rise Set
Actual Time
Civil Twilight
Nautical Twilight
Astronomical Twilight
Moon
Length of Visible Light
Length of Day
Tomorrow will be .
, % of the Moon is Illuminated

Today's Extremes

State Highs State Lows

Community

WunderPhotos

Upload Photos

1,962,540 photos uploaded!

WunderBlog® & News

Nearby

Air Quality

  Air Quality AQ Index Pollutant
Not available.

Snow Depth

Station Depth Elevation

Earthquake Activity

City Distance Mag. Time & Date
Minimum magnitude displayed is 2.5.

Coastal Water Temperatures

Place Temperature

Stations

Nearby Weather Stations

Station Location Temp. Windchill Dew Point Humidity Wind Precip. Elev Updated Type
                   

Watches & Warnings

Wind Advisory
Issued: 10:13 PM CST Jan. 22, 2017 – National Weather Service

... Wind Advisory in effect until noon CST Monday...

The National Weather Service in Nashville has issued a Wind
Advisory, which is in effect until noon CST Monday.

* Timing... midnight through noon Monday.

* Winds... sustained 20 to 30 mph and gusts around 40 mph possible.

* Impacts... some tree limbs and branches may be blown down. Loose
outdoor objects will be blown around. Travel could be
difficult... especially for high profile vehicles on east-west
roadways.

Precautionary/preparedness actions...

A Wind Advisory means that sustained wind of 25 mph or greater
with gusts to around 40 mph are expected. Winds this strong may
blow down a few trees or tree limbs and cause isolated power
outages. Driving may also become difficult... especially for high
profile vehicles. Use extra caution.